Antlers, Colorado
Current Conditions -  °F | °C
As of 7:08 AM on Monday 24 Nov 2014 (Local Time) from KEEO Reporting Station
Light Snow Light Snow  
Wind Chill: 22°   Ceiling: 1300
Heat Index: 22°   Visibility: 0.75mi
Dew Point: 18°   Wind: 0mph
Humidity: 85%   Direction: NA
Pressure: 30.07"   Gusts: NA
Location:  39.7934°N, 108.135°W
Report Text: KEEO 241408Z AUTO 00000KT 3/4SM -SN BR VV013 M06/M08 A3007 RMK AO2 P0000 T10561078
Loading
Personal Weather Stations






























Interactive Weather Map New forecast layout! Learn more

10-Day Weather Forecast

Advertisements
Track Severe Weather on mobile